Time,TemperatureF,DewpointF,PressureIn,WindDirection,WindDirectionDegrees,WindSpeedMPH,WindSpeedGustMPH,Humidity,HourlyPrecipIn,Conditions,Clouds,dailyrainin,SoftwareType,DateUTC
2013-05-14 00:07:00,71.1,54.0,30.11,NNE,12,1.0,2.0,56,0.00,,,0.00,weatherlink.com 1.10,2013-05-14 04:07:00,
2013-05-14 00:23:00,70.4,54.0,30.11,North,352,3.0,7.0,57,0.00,,,0.00,weatherlink.com 1.10,2013-05-14 04:23:00,
2013-05-14 00:38:00,69.8,55.0,30.12,East,90,2.0,4.0,60,0.00,,,0.00,weatherlink.com 1.10,2013-05-14 04:38:00,
2013-05-14 00:53:00,68.9,54.0,30.11,NNW,341,1.0,3.0,59,0.00,,,0.00,weatherlink.com 1.10,2013-05-14 04:53:00,
2013-05-14 01:08:00,68.3,55.0,30.11,NNE,20,1.0,2.0,63,0.00,,,0.00,weatherlink.com 1.10,2013-05-14 05:08:00,
2013-05-14 01:23:00,67.8,56.0,30.11,NW,323,2.0,3.0,66,0.00,,,0.00,weatherlink.com 1.10,2013-05-14 05:23:00,
2013-05-14 01:38:00,67.9,57.0,30.11,North,6,1.0,4.0,68,0.00,,,0.00,weatherlink.com 1.10,2013-05-14 05:38:00,
2013-05-14 01:53:00,67.6,57.0,30.10,NE,36,1.0,2.0,68,0.00,,,0.00,weatherlink.com 1.10,2013-05-14 05:53:00,
2013-05-14 02:08:00,67.3,57.0,30.10,NE,50,1.0,2.0,70,0.00,,,0.00,weatherlink.com 1.10,2013-05-14 06:08:00,
2013-05-14 02:23:00,66.9,57.0,30.10,SE,145,0.0,2.0,70,0.00,,,0.00,weatherlink.com 1.10,2013-05-14 06:23:00,
2013-05-14 02:38:00,66.5,56.0,30.10,NNE,29,1.0,3.0,70,0.00,,,0.00,weatherlink.com 1.10,2013-05-14 06:38:00,
2013-05-14 02:53:00,66.3,56.0,30.10,NNE,19,1.0,3.0,70,0.00,,,0.00,weatherlink.com 1.10,2013-05-14 06:53:00,
2013-05-14 03:08:00,66.0,56.0,30.10,NE,54,0.0,2.0,71,0.00,,,0.00,weatherlink.com 1.10,2013-05-14 07:08:00,
2013-05-14 03:23:00,65.5,57.0,30.10,NNE,12,1.0,2.0,73,0.00,,,0.00,weatherlink.com 1.10,2013-05-14 07:23:00,
2013-05-14 03:38:00,65.4,57.0,30.10,North,8,1.0,2.0,74,0.00,,,0.00,weatherlink.com 1.10,2013-05-14 07:38:00,
2013-05-14 03:53:00,65.3,58.0,30.10,NNE,22,0.0,2.0,76,0.00,,,0.00,weatherlink.com 1.10,2013-05-14 07:53:00,
2013-05-14 04:08:00,65.1,58.0,30.10,NNE,12,0.0,1.0,77,0.00,,,0.00,weatherlink.com 1.10,2013-05-14 08:08:00,
2013-05-14 04:23:00,65.0,58.0,30.10,NNE,24,1.0,1.0,78,0.00,,,0.00,weatherlink.com 1.10,2013-05-14 08:23:00,
2013-05-14 04:38:00,65.1,58.0,30.10,NNE,12,0.0,1.0,77,0.00,,,0.00,weatherlink.com 1.10,2013-05-14 08:38:00,
2013-05-14 04:53:00,65.1,58.0,30.10,NNE,32,0.0,2.0,77,0.00,,,0.00,weatherlink.com 1.10,2013-05-14 08:53:00,
2013-05-14 05:08:00,65.1,58.0,30.10,NE,36,0.0,1.0,77,0.00,,,0.00,weatherlink.com 1.10,2013-05-14 09:08:00,
2013-05-14 05:23:00,65.0,58.0,30.11,NNE,19,0.0,2.0,77,0.00,,,0.00,weatherlink.com 1.10,2013-05-14 09:23:00,
2013-05-14 05:38:00,65.0,58.0,30.11,North,6,0.0,2.0,77,0.00,,,0.00,weatherlink.com 1.10,2013-05-14 09:38:00,
2013-05-14 05:53:00,64.9,58.0,30.11,NE,43,0.0,1.0,78,0.00,,,0.00,weatherlink.com 1.10,2013-05-14 09:53:00,
2013-05-14 06:08:00,64.7,58.0,30.11,North,357,2.0,2.0,78,0.00,,,0.00,weatherlink.com 1.10,2013-05-14 10:08:00,
2013-05-14 06:23:00,64.5,58.0,30.11,North,6,1.0,2.0,79,0.00,,,0.00,weatherlink.com 1.10,2013-05-14 10:23:00,
2013-05-14 06:38:00,64.3,58.0,30.12,NNE,23,1.0,3.0,79,0.00,,,0.00,weatherlink.com 1.10,2013-05-14 10:38:00,
2013-05-14 06:53:00,64.1,57.0,30.13,NNW,344,0.0,3.0,79,0.00,,,0.00,weatherlink.com 1.10,2013-05-14 10:53:00,
2013-05-14 07:08:00,64.3,57.0,30.14,NNE,30,0.0,2.0,78,0.00,,,0.00,weatherlink.com 1.10,2013-05-14 11:08:00,
2013-05-14 07:23:00,64.9,57.0,30.14,NNE,29,0.0,1.0,75,0.00,,,0.00,weatherlink.com 1.10,2013-05-14 11:23:00,
2013-05-14 07:38:00,67.0,57.0,30.14,NE,40,0.0,0.0,71,0.00,,,0.00,weatherlink.com 1.10,2013-05-14 11:38:00,
2013-05-14 07:53:00,68.4,57.0,30.15,NE,44,0.0,0.0,68,0.00,,,0.00,weatherlink.com 1.10,2013-05-14 11:53:00,
2013-05-14 08:08:00,69.3,57.0,30.15,NNE,20,1.0,3.0,66,0.00,,,0.00,weatherlink.com 1.10,2013-05-14 12:08:00,
2013-05-14 08:23:00,70.9,58.0,30.15,NW,321,0.0,3.0,63,0.00,,,0.00,weatherlink.com 1.10,2013-05-14 12:23:00,
2013-05-14 08:39:00,71.5,57.0,30.16,North,11,1.0,5.0,60,0.00,,,0.00,weatherlink.com 1.10,2013-05-14 12:39:00,
2013-05-14 08:54:00,72.4,57.0,30.16,NE,56,1.0,3.0,59,0.00,,,0.00,weatherlink.com 1.10,2013-05-14 12:54:00,
2013-05-14 09:09:00,72.9,57.0,30.16,NNE,32,3.0,5.0,57,0.00,,,0.00,weatherlink.com 1.10,2013-05-14 13:09:00,
2013-05-14 09:24:00,73.6,57.0,30.16,North,359,2.0,4.0,57,0.00,,,0.00,weatherlink.com 1.10,2013-05-14 13:24:00,
2013-05-14 09:39:00,74.9,57.0,30.16,NNE,18,2.0,3.0,54,0.00,,,0.00,weatherlink.com 1.10,2013-05-14 13:39:00,
2013-05-14 09:54:00,75.3,56.0,30.16,North,354,2.0,5.0,51,0.00,,,0.00,weatherlink.com 1.10,2013-05-14 13:54:00,
2013-05-14 10:09:00,76.1,57.0,30.16,NE,42,3.0,5.0,52,0.00,,,0.00,weatherlink.com 1.10,2013-05-14 14:09:00,
2013-05-14 10:24:00,77.1,59.0,30.17,ENE,65,1.0,6.0,54,0.00,,,0.00,weatherlink.com 1.10,2013-05-14 14:24:00,
2013-05-14 10:39:00,78.1,59.0,30.16,ESE,113,8.0,8.0,52,0.00,,,0.00,weatherlink.com 1.10,2013-05-14 14:39:00,
2013-05-14 10:54:00,78.9,59.0,30.17,NNE,23,2.0,4.0,50,0.00,,,0.00,weatherlink.com 1.10,2013-05-14 14:54:00,
2013-05-14 11:09:00,79.7,58.0,30.17,ENE,65,4.0,6.0,48,0.00,,,0.00,weatherlink.com 1.10,2013-05-14 15:09:00,
2013-05-14 11:24:00,80.5,59.0,30.17,North,5,1.0,8.0,48,0.00,,,0.00,weatherlink.com 1.10,2013-05-14 15:24:00,
2013-05-14 11:39:00,81.0,59.0,30.17,NW,310,1.0,8.0,47,0.00,,,0.00,weatherlink.com 1.10,2013-05-14 15:39:00,
2013-05-14 11:54:00,81.9,59.0,30.17,NNE,26,2.0,6.0,45,0.00,,,0.00,weatherlink.com 1.10,2013-05-14 15:54:00,
2013-05-14 12:09:00,82.4,60.0,30.16,East,85,1.0,6.0,46,0.00,,,0.00,weatherlink.com 1.10,2013-05-14 16:09:00,
2013-05-14 12:24:00,83.6,59.0,30.16,ESE,121,4.0,5.0,44,0.00,,,0.00,weatherlink.com 1.10,2013-05-14 16:24:00,
2013-05-14 12:39:00,83.2,58.0,30.16,ENE,58,3.0,8.0,43,0.00,,,0.00,weatherlink.com 1.10,2013-05-14 16:39:00,
2013-05-14 12:54:00,84.1,59.0,30.16,North,8,2.0,2.0,43,0.00,,,0.00,weatherlink.com 1.10,2013-05-14 16:54:00,
2013-05-14 13:09:00,84.4,59.0,30.15,North,11,1.0,4.0,42,0.00,,,0.00,weatherlink.com 1.10,2013-05-14 17:09:00,
2013-05-14 13:24:00,85.0,57.0,30.15,NNW,332,1.0,6.0,39,0.00,,,0.00,weatherlink.com 1.10,2013-05-14 17:24:00,
2013-05-14 13:39:00,85.0,59.0,30.14,NNE,32,2.0,5.0,42,0.00,,,0.00,weatherlink.com 1.10,2013-05-14 17:39:00,
2013-05-14 13:54:00,85.7,57.0,30.14,ESE,113,2.0,5.0,38,0.00,,,0.00,weatherlink.com 1.10,2013-05-14 17:54:00,
2013-05-14 14:09:00,85.9,58.0,30.13,North,359,2.0,3.0,39,0.00,,,0.00,weatherlink.com 1.10,2013-05-14 18:09:00,
2013-05-14 14:24:00,85.6,59.0,30.13,NNW,347,2.0,3.0,40,0.00,,,0.00,weatherlink.com 1.10,2013-05-14 18:24:00,
2013-05-14 14:39:00,85.2,58.0,30.12,North,4,2.0,4.0,39,0.00,,,0.00,weatherlink.com 1.10,2013-05-14 18:39:00,
2013-05-14 14:54:00,85.3,57.0,30.12,North,359,2.0,4.0,38,0.00,,,0.00,weatherlink.com 1.10,2013-05-14 18:54:00,
2013-05-14 15:09:00,84.9,57.0,30.11,North,350,1.0,3.0,39,0.00,,,0.00,weatherlink.com 1.10,2013-05-14 19:09:00,
2013-05-14 15:24:00,85.0,56.0,30.11,NNE,20,2.0,4.0,37,0.00,,,0.00,weatherlink.com 1.10,2013-05-14 19:24:00,
2013-05-14 15:39:00,85.9,55.0,30.10,NNE,25,2.0,4.0,35,0.00,,,0.00,weatherlink.com 1.10,2013-05-14 19:39:00,
2013-05-14 15:54:00,85.4,56.0,30.10,North,4,2.0,4.0,36,0.00,,,0.00,weatherlink.com 1.10,2013-05-14 19:54:00,
2013-05-14 16:09:00,85.4,58.0,30.10,NNW,338,0.0,3.0,39,0.00,,,0.00,weatherlink.com 1.10,2013-05-14 20:09:00,
2013-05-14 16:24:00,86.3,57.0,30.09,NE,40,2.0,2.0,37,0.00,,,0.00,weatherlink.com 1.10,2013-05-14 20:24:00,
2013-05-14 16:39:00,86.2,56.0,30.09,North,3,2.0,4.0,36,0.00,,,0.00,weatherlink.com 1.10,2013-05-14 20:39:00,
2013-05-14 16:54:00,86.6,58.0,30.08,NE,44,2.0,2.0,38,0.00,,,0.00,weatherlink.com 1.10,2013-05-14 20:54:00,
2013-05-14 17:09:00,86.1,56.0,30.08,North,5,2.0,3.0,36,0.00,,,0.00,weatherlink.com 1.10,2013-05-14 21:09:00,
2013-05-14 17:24:00,86.6,56.0,30.08,North,1,2.0,2.0,35,0.00,,,0.00,weatherlink.com 1.10,2013-05-14 21:24:00,
2013-05-14 17:54:00,85.7,56.0,30.07,North,11,2.0,3.0,36,0.00,,,0.00,weatherlink.com 1.10,2013-05-14 21:54:00,
2013-05-14 18:09:00,84.2,56.0,30.07,NNW,347,1.0,7.0,38,0.00,,,0.00,weatherlink.com 1.10,2013-05-14 22:09:00,
2013-05-14 18:24:00,83.8,58.0,30.08,ESE,108,2.0,6.0,42,0.00,,,0.00,weatherlink.com 1.10,2013-05-14 22:24:00,
2013-05-14 18:39:00,82.9,58.0,30.08,South,169,2.0,6.0,43,0.00,,,0.00,weatherlink.com 1.10,2013-05-14 22:39:00,
2013-05-14 18:54:00,82.5,59.0,30.08,SSE,153,2.0,4.0,45,0.00,,,0.00,weatherlink.com 1.10,2013-05-14 22:54:00,
2013-05-14 19:09:00,81.4,59.0,30.08,NNE,17,1.0,8.0,46,0.00,,,0.00,weatherlink.com 1.10,2013-05-14 23:09:00,
2013-05-14 19:24:00,80.7,59.0,30.09,SE,133,0.0,6.0,47,0.00,,,0.00,weatherlink.com 1.10,2013-05-14 23:24:00,
2013-05-14 19:39:00,79.9,58.0,30.09,East,79,4.0,7.0,48,0.00,,,0.00,weatherlink.com 1.10,2013-05-14 23:39:00,
2013-05-14 19:54:00,79.1,58.0,30.09,East,79,0.0,7.0,49,0.00,,,0.00,weatherlink.com 1.10,2013-05-14 23:54:00,
2013-05-14 20:09:00,78.5,59.0,30.10,NNW,346,1.0,7.0,51,0.00,,,0.00,weatherlink.com 1.10,2013-05-15 00:09:00,
2013-05-14 20:24:00,77.7,58.0,30.10,East,96,3.0,6.0,51,0.00,,,0.00,weatherlink.com 1.10,2013-05-15 00:24:00,
2013-05-14 20:39:00,77.0,58.0,30.11,East,90,1.0,5.0,53,0.00,,,0.00,weatherlink.com 1.10,2013-05-15 00:39:00,
2013-05-14 20:54:00,76.4,58.0,30.11,ENE,61,0.0,5.0,54,0.00,,,0.00,weatherlink.com 1.10,2013-05-15 00:54:00,
2013-05-14 21:09:00,75.8,59.0,30.12,East,95,2.0,8.0,56,0.00,,,0.00,weatherlink.com 1.10,2013-05-15 01:09:00,
2013-05-14 21:24:00,75.2,59.0,30.13,East,100,7.0,7.0,57,0.00,,,0.00,weatherlink.com 1.10,2013-05-15 01:24:00,
2013-05-14 21:39:00,74.8,59.0,30.13,North,4,1.0,7.0,58,0.00,,,0.00,weatherlink.com 1.10,2013-05-15 01:39:00,
2013-05-14 21:54:00,74.2,59.0,30.14,NE,56,3.0,6.0,60,0.00,,,0.00,weatherlink.com 1.10,2013-05-15 01:54:00,
2013-05-14 22:09:00,73.6,59.0,30.14,East,84,1.0,6.0,60,0.00,,,0.00,weatherlink.com 1.10,2013-05-15 02:09:00,
2013-05-14 22:24:00,73.1,59.0,30.15,NNW,330,1.0,4.0,61,0.00,,,0.00,weatherlink.com 1.10,2013-05-15 02:24:00,
2013-05-14 22:39:00,72.6,59.0,30.16,ENE,68,2.0,6.0,62,0.00,,,0.00,weatherlink.com 1.10,2013-05-15 02:39:00,
2013-05-14 22:54:00,72.0,59.0,30.16,NE,44,4.0,4.0,63,0.00,,,0.00,weatherlink.com 1.10,2013-05-15 02:54:00,
2013-05-14 23:09:00,71.7,58.0,30.16,ESE,105,1.0,7.0,63,0.00,,,0.00,weatherlink.com 1.10,2013-05-15 03:09:00,
2013-05-14 23:24:00,71.3,58.0,30.16,NE,43,2.0,6.0,64,0.00,,,0.00,weatherlink.com 1.10,2013-05-15 03:24:00,
2013-05-14 23:39:00,70.9,58.0,30.17,East,90,1.0,4.0,65,0.00,,,0.00,weatherlink.com 1.10,2013-05-15 03:39:00,
2013-05-14 23:54:00,70.6,59.0,30.16,NW,325,1.0,6.0,66,0.00,,,0.00,weatherlink.com 1.10,2013-05-15 03:54:00,